Ashland, Wisconsin
Current Conditions -  °F | °C
As of 11:53 AM on Thursday 30 Oct 2014 (Local Time) from KASX Reporting Station
Overcast Overcast  
Wind Chill:   Ceiling: 2100
Heat Index:   Visibility: 10mi
Dew Point:   Wind: 7mph
Humidity: 76%   Direction: 250°WSW
Pressure: 30.09"   Gusts: NA
Location:  46.59°N, 90.89°W
Report Text: KASX 301653Z AUTO 25006KT 10SM OVC021 05/01 A3009 RMK AO2 SLP196 T00500011
Loading
Personal Weather Stations






























Interactive Weather Map New forecast layout! Learn more

10-Day Weather Forecast

Advertisements
Track Severe Weather on mobile